Gazpromneft East — UBOF4 — position and weather

sailwx.info

Track history (hours):
 
Tides and Currents Weather Stations Pressure Air Temp Water Temp Dewpoint Dewpoint Depression Visibility Wind Speed Wind Dir Waves Ship Positions

Gazpromneft East

Last reported at 2016-Apr-28 20:33 UTC. Time now 2016-May-01 02:18 UTC.
Position N 60°01' E 029°35'.

Length 79 m; draft 4.7 m.

Type: Ship (hazmat cat B). MMSI: 273335320.

Date/timePositionNaut miles runAvg speedWind from/ knotsBaromVisibWave heightAir tempDewpointWater temp
2016-Apr-28 20:33N 60°01' E 029°35'1010.2
2016-Apr-28 19:33N 59°57' E 029°54'10 9.5
2016-Apr-28 18:33N 59°53' E 030°12'1 0.8
2016-Apr-28 17:33N 59°53' E 030°13'0 0.0
2016-Apr-28 16:33N 59°53' E 030°13'1 0.6
2016-Apr-28 15:33N 59°54' E 030°13'0 0.0
2016-Apr-28 14:33N 59°54' E 030°13'0 0.0
2016-Apr-28 13:33N 59°54' E 030°13'0 0.0
2016-Apr-28 12:33N 59°54' E 030°13'0 0.0
2016-Apr-28 11:33N 59°54' E 030°13'0 0.0
2016-Apr-28 10:33N 59°54' E 030°13'1 0.6
2016-Apr-28 09:33N 59°53' E 030°13'0 0.0
2016-Apr-28 08:33N 59°53' E 030°13'0 0.0
2016-Apr-28 07:33N 59°53' E 030°13'0 0.0
2016-Apr-28 06:33N 59°53' E 030°13'2 2.5
2016-Apr-28 05:33N 59°54' E 030°09'9 9.1
2016-Apr-28 04:33N 59°57' E 029°52'3 3.1
2016-Apr-28 03:33N 59°56' E 029°46'0 0.0
2016-Apr-28 02:33N 59°56' E 029°46'0 0.0
2016-Apr-28 01:33N 59°56' E 029°46'0 0.0
2016-Apr-28 00:32N 59°56' E 029°46'0 0.0
2016-Apr-27 23:33N 59°56' E 029°46'0 0.0
2016-Apr-27 22:33N 59°56' E 029°46'0 0.0
2016-Apr-27 21:33N 59°56' E 029°46'0 0.0
2016-Apr-27 20:33N 59°56' E 029°46'0 0.0
2016-Apr-27 19:33N 59°56' E 029°46'0 0.0
2016-Apr-27 18:33N 59°56' E 029°46'0 0.0
2016-Apr-27 17:33N 59°56' E 029°46'0 0.0
2016-Apr-27 16:33N 59°56' E 029°46'0 0.0
2016-Apr-27 15:33N 59°56' E 029°46'0 0.0
2016-Apr-27 14:33N 59°56' E 029°46'0 0.0
2016-Apr-27 13:33N 59°56' E 029°46'0 0.0
2016-Apr-27 12:33N 59°56' E 029°46'0 0.0
2016-Apr-27 11:33N 59°56' E 029°46'0 0.0
2016-Apr-27 10:33N 59°56' E 029°46'0 0.0
2016-Apr-27 09:33N 59°56' E 029°46'0 0.0
2016-Apr-27 08:33N 59°56' E 029°46'0 0.0
2016-Apr-27 07:33N 59°56' E 029°46'0 0.0
2016-Apr-27 06:33N 59°56' E 029°46'0 0.0
2016-Apr-27 05:33N 59°56' E 029°46'0 0.0
2016-Apr-27 04:33N 59°56' E 029°46'0 0.0
2016-Apr-27 03:33N 59°56' E 029°46'3 3.3
2016-Apr-27 02:33N 59°59' E 029°45'18 5.5
2016-Apr-26 23:12N 60°01' E 029°09'711.5
2016-Apr-26 22:33N 59°59' E 028°55'1211.9
2016-Apr-26 21:33N 59°53' E 028°34'10 9.9
2016-Apr-26 20:33N 59°44' E 028°24'3 3.4
2016-Apr-26 19:33N 59°41' E 028°25'0 0.0
2016-Apr-26 18:33N 59°41' E 028°25'0 0.0
2016-Apr-26 17:33N 59°41' E 028°25'0 0.0
2016-Apr-26 16:33N 59°41' E 028°25'1 0.5
2016-Apr-26 15:33N 59°41' E 028°24'2 0.5
2016-Apr-26 11:25N 59°42' E 028°20'0 0.0
2016-Apr-26 10:25N 59°42' E 028°20'0 0.0
2016-Apr-26 09:28N 59°42' E 028°20'0 0.0
2016-Apr-26 08:25N 59°42' E 028°20'0 0.0
2016-Apr-26 07:31N 59°42' E 028°20'0 0.0
2016-Apr-26 04:28N 59°42' E 028°20'0 0.0
2016-Apr-26 03:31N 59°42' E 028°20'0 0.0
2016-Apr-26 02:31N 59°42' E 028°20'0 0.0
2016-Apr-26 01:31N 59°42' E 028°20'0 0.0
2016-Apr-26 00:25N 59°42' E 028°20'0 0.0
2016-Apr-25 23:22N 59°42' E 028°20'5 5.7
2016-Apr-25 22:33N 59°46' E 028°24'1 0.6
2016-Apr-25 21:33N 59°46' E 028°25'0 0.0
2016-Apr-25 20:33N 59°46' E 028°25'0 0.0
2016-Apr-25 19:33N 59°46' E 028°25'0 0.0
2016-Apr-25 18:32N 59°46' E 028°25'0 0.0
2016-Apr-25 17:33N 59°46' E 028°25'0 0.0
2016-Apr-25 16:33N 59°46' E 028°25'0 0.0
2016-Apr-25 15:33N 59°46' E 028°25'0 0.0
2016-Apr-25 14:33N 59°46' E 028°25'0 0.0
2016-Apr-25 13:33N 59°46' E 028°25'0 0.0
2016-Apr-25 12:33N 59°46' E 028°25'0 0.1
2016-Apr-25 11:34N 59°46' E 028°25'0 0.4
2016-Apr-25 10:33N 59°47' E 028°25'8 7.8
2016-Apr-25 09:33N 59°54' E 028°32'4 3.6
2016-Apr-25 08:29N 59°55' E 028°39'0 0.0
2016-Apr-25 07:32N 59°55' E 028°39'0 0.0
2016-Apr-25 06:32N 59°55' E 028°39'0 0.0
2016-Apr-25 05:32N 59°55' E 028°39'0 0.0
2016-Apr-25 04:26N 59°55' E 028°39'0 0.0
2016-Apr-25 03:23N 59°55' E 028°39'0 0.0
2016-Apr-25 02:26N 59°55' E 028°39'0 0.0
2016-Apr-25 00:11N 59°55' E 028°39'0 0.0
2016-Apr-24 23:29N 59°55' E 028°39'0 0.0
2016-Apr-24 22:29N 59°55' E 028°39'8 8.5
2016-Apr-24 21:33N 59°58' E 028°53'2311.4
2016-Apr-24 19:33N 60°00' E 029°38'6 5.9
2016-Apr-24 18:33N 59°56' E 029°46'0 0.0
2016-Apr-24 17:32N 59°56' E 029°46'0 0.0
2016-Apr-24 16:33N 59°56' E 029°46'0 0.0
2016-Apr-24 15:33N 59°56' E 029°46'0 0.0
2016-Apr-24 14:32N 59°56' E 029°46'0 0.0
2016-Apr-24 13:33N 59°56' E 029°46'0 0.0
2016-Apr-24 12:33N 59°56' E 029°46'0 0.0
2016-Apr-24 11:33N 59°56' E 029°46'1 1.5
2016-Apr-24 10:33N 59°57' E 029°47'9 9.4
2016-Apr-24 09:33N 59°54' E 030°05'4 4.4
2016-Apr-24 08:33N 59°53' E 030°13'0 0.0
2016-Apr-24 07:33N 59°53' E 030°13'0 0.0
2016-Apr-24 06:33N 59°53' E 030°13'0 0.0
2016-Apr-24 05:33N 59°53' E 030°13'0 0.0
2016-Apr-24 04:33N 59°53' E 030°13'0 0.1
2016-Apr-24 03:33N 59°53' E 030°14'0 0.0
2016-Apr-24 02:33N 59°53' E 030°14'0 0.0
2016-Apr-24 01:33N 59°53' E 030°14'0 0.0
2016-Apr-24 00:33N 59°53' E 030°14'1 0.9
2016-Apr-23 23:33N 59°53' E 030°12'0 0.0
2016-Apr-23 22:33N 59°53' E 030°12'0 0.0
2016-Apr-23 21:33N 59°53' E 030°12'0 0.0
2016-Apr-23 20:33N 59°53' E 030°12'0 0.0
2016-Apr-23 19:33N 59°53' E 030°12'0 0.0
2016-Apr-23 18:33N 59°53' E 030°12'1 0.8
2016-Apr-23 17:33N 59°53' E 030°13'0 0.0
2016-Apr-23 16:33N 59°53' E 030°13'0 0.0
2016-Apr-23 15:33N 59°53' E 030°13'2 2.1
2016-Apr-23 14:33N 59°55' E 030°15'0 0.0
2016-Apr-23 13:33N 59°55' E 030°15'0 0.0
2016-Apr-23 12:33N 59°55' E 030°15'0 0.0
2016-Apr-23 11:33N 59°55' E 030°15'0 0.0
2016-Apr-23 10:33N 59°55' E 030°15'0 0.1
2016-Apr-23 09:33N 59°55' E 030°15'2 2.0
2016-Apr-23 08:33N 59°53' E 030°14'0 0.0
2016-Apr-23 07:33N 59°53' E 030°14'0 0.0
2016-Apr-23 06:33N 59°53' E 030°14'0 0.1
2016-Apr-23 05:33N 59°53' E 030°13'0 0.0
2016-Apr-23 04:33N 59°53' E 030°13'0 0.0
2016-Apr-23 03:33N 59°53' E 030°13'3 3.2
2016-Apr-23 02:33N 59°54' E 030°07'9 9.3
2016-Apr-23 01:33N 59°57' E 029°50'10 9.2
2016-Apr-23 00:27N 60°01' E 029°31'25 2.1
2016-Apr-22 12:31N 60°15' E 028°49'6 0.4
2016-Apr-21 21:27N 60°20' E 028°42'0 0.0
2016-Apr-21 20:30N 60°20' E 028°42'32 0.9
2016-Apr-20 10:33N 60°01' E 029°33'1110.6
2016-Apr-20 09:33N 59°57' E 029°52'10 9.6
2016-Apr-20 08:33N 59°53' E 030°10'2 1.6
2016-Apr-20 07:33N 59°53' E 030°13'0 0.0
2016-Apr-20 06:33N 59°53' E 030°13'0 0.0
2016-Apr-20 05:33N 59°53' E 030°13'0 0.0
2016-Apr-20 04:32N 59°53' E 030°13'0 0.0
2016-Apr-20 03:33N 59°53' E 030°13'0 0.0
2016-Apr-20 02:33N 59°53' E 030°13'0 0.0
2016-Apr-20 01:33N 59°53' E 030°13'0 0.0
2016-Apr-20 00:33N 59°53' E 030°13'0 0.0
2016-Apr-19 23:33N 59°53' E 030°13'0 0.0
2016-Apr-19 22:33N 59°53' E 030°13'0 0.0
2016-Apr-19 21:33N 59°53' E 030°13'0 0.0
2016-Apr-19 20:32N 59°53' E 030°13'0 0.0
2016-Apr-19 19:33N 59°53' E 030°13'0 0.0
2016-Apr-19 18:33N 59°53' E 030°13'0 0.0
2016-Apr-19 17:33N 59°53' E 030°13'0 0.0
2016-Apr-19 16:33N 59°53' E 030°13'0 0.0
2016-Apr-19 15:33N 59°53' E 030°13'0 0.0
2016-Apr-19 14:33N 59°53' E 030°13'0 0.0
2016-Apr-19 13:33N 59°53' E 030°13'0 0.0
2016-Apr-19 12:33N 59°53' E 030°13'0 0.0
2016-Apr-19 11:33N 59°53' E 030°13'0 0.0
2016-Apr-19 10:33N 59°53' E 030°13'0 0.0
2016-Apr-19 09:33N 59°53' E 030°13'0 0.0
2016-Apr-19 08:33N 59°53' E 030°13'0 0.0
2016-Apr-19 07:33N 59°53' E 030°13'0 0.0
2016-Apr-19 06:33N 59°53' E 030°13'0 0.0
2016-Apr-19 05:33N 59°53' E 030°13'0 0.0
2016-Apr-19 04:33N 59°53' E 030°13'0 0.0
2016-Apr-19 03:32N 59°53' E 030°13'0 0.0
2016-Apr-19 02:33N 59°53' E 030°13'0 0.0
2016-Apr-19 01:33N 59°53' E 030°13'0 0.0
2016-Apr-19 00:33N 59°53' E 030°13'0 0.0
2016-Apr-18 23:33N 59°53' E 030°13'0 0.0
2016-Apr-18 22:33N 59°53' E 030°13'0 0.0
2016-Apr-18 21:33N 59°53' E 030°13'0 0.0
2016-Apr-18 20:33N 59°53' E 030°13'  
Track history (hours):
 
Tides and Currents Weather Stations Pressure Air Temp Water Temp Dewpoint Dewpoint Depression Visibility Wind Speed Wind Dir Waves Ship Positions

Gazpromneft East

Last reported at 2016-Apr-28 20:33 UTC. Time now 2016-May-01 02:18 UTC.
Position N 60°01' E 029°35'.

Length 79 m; draft 4.7 m.

Type: Ship (hazmat cat B). MMSI: 273335320.

Date/timePositionNaut miles runAvg speedWind from/ knotsBaromVisibWave heightAir tempDewpointWater temp
2016-Apr-28 20:33N 60°01' E 029°35'1010.2
2016-Apr-28 19:33N 59°57' E 029°54'10 9.5
2016-Apr-28 18:33N 59°53' E 030°12'1 0.8
2016-Apr-28 17:33N 59°53' E 030°13'0 0.0
2016-Apr-28 16:33N 59°53' E 030°13'1 0.6
2016-Apr-28 15:33N 59°54' E 030°13'0 0.0
2016-Apr-28 14:33N 59°54' E 030°13'0 0.0
2016-Apr-28 13:33N 59°54' E 030°13'0 0.0
2016-Apr-28 12:33N 59°54' E 030°13'0 0.0
2016-Apr-28 11:33N 59°54' E 030°13'0 0.0
2016-Apr-28 10:33N 59°54' E 030°13'1 0.6
2016-Apr-28 09:33N 59°53' E 030°13'0 0.0
2016-Apr-28 08:33N 59°53' E 030°13'0 0.0
2016-Apr-28 07:33N 59°53' E 030°13'0 0.0
2016-Apr-28 06:33N 59°53' E 030°13'2 2.5
2016-Apr-28 05:33N 59°54' E 030°09'9 9.1
2016-Apr-28 04:33N 59°57' E 029°52'3 3.1
2016-Apr-28 03:33N 59°56' E 029°46'0 0.0
2016-Apr-28 02:33N 59°56' E 029°46'0 0.0
2016-Apr-28 01:33N 59°56' E 029°46'0 0.0
2016-Apr-28 00:32N 59°56' E 029°46'0 0.0
2016-Apr-27 23:33N 59°56' E 029°46'0 0.0
2016-Apr-27 22:33N 59°56' E 029°46'0 0.0
2016-Apr-27 21:33N 59°56' E 029°46'0 0.0
2016-Apr-27 20:33N 59°56' E 029°46'0 0.0
2016-Apr-27 19:33N 59°56' E 029°46'0 0.0
2016-Apr-27 18:33N 59°56' E 029°46'0 0.0
2016-Apr-27 17:33N 59°56' E 029°46'0 0.0
2016-Apr-27 16:33N 59°56' E 029°46'0 0.0
2016-Apr-27 15:33N 59°56' E 029°46'0 0.0
2016-Apr-27 14:33N 59°56' E 029°46'0 0.0
2016-Apr-27 13:33N 59°56' E 029°46'0 0.0
2016-Apr-27 12:33N 59°56' E 029°46'0 0.0
2016-Apr-27 11:33N 59°56' E 029°46'0 0.0
2016-Apr-27 10:33N 59°56' E 029°46'0 0.0
2016-Apr-27 09:33N 59°56' E 029°46'0 0.0
2016-Apr-27 08:33N 59°56' E 029°46'0 0.0
2016-Apr-27 07:33N 59°56' E 029°46'0 0.0
2016-Apr-27 06:33N 59°56' E 029°46'0 0.0
2016-Apr-27 05:33N 59°56' E 029°46'0 0.0
2016-Apr-27 04:33N 59°56' E 029°46'0 0.0
2016-Apr-27 03:33N 59°56' E 029°46'3 3.3
2016-Apr-27 02:33N 59°59' E 029°45'18 5.5
2016-Apr-26 23:12N 60°01' E 029°09'711.5
2016-Apr-26 22:33N 59°59' E 028°55'1211.9
2016-Apr-26 21:33N 59°53' E 028°34'10 9.9
2016-Apr-26 20:33N 59°44' E 028°24'3 3.4
2016-Apr-26 19:33N 59°41' E 028°25'0 0.0
2016-Apr-26 18:33N 59°41' E 028°25'0 0.0
2016-Apr-26 17:33N 59°41' E 028°25'0 0.0
2016-Apr-26 16:33N 59°41' E 028°25'1 0.5
2016-Apr-26 15:33N 59°41' E 028°24'2 0.5
2016-Apr-26 11:25N 59°42' E 028°20'0 0.0
2016-Apr-26 10:25N 59°42' E 028°20'0 0.0
2016-Apr-26 09:28N 59°42' E 028°20'0 0.0
2016-Apr-26 08:25N 59°42' E 028°20'0 0.0
2016-Apr-26 07:31N 59°42' E 028°20'0 0.0
2016-Apr-26 04:28N 59°42' E 028°20'0 0.0
2016-Apr-26 03:31N 59°42' E 028°20'0 0.0
2016-Apr-26 02:31N 59°42' E 028°20'0 0.0
2016-Apr-26 01:31N 59°42' E 028°20'0 0.0
2016-Apr-26 00:25N 59°42' E 028°20'0 0.0
2016-Apr-25 23:22N 59°42' E 028°20'5 5.7
2016-Apr-25 22:33N 59°46' E 028°24'1 0.6
2016-Apr-25 21:33N 59°46' E 028°25'0 0.0
2016-Apr-25 20:33N 59°46' E 028°25'0 0.0
2016-Apr-25 19:33N 59°46' E 028°25'0 0.0
2016-Apr-25 18:32N 59°46' E 028°25'0 0.0
2016-Apr-25 17:33N 59°46' E 028°25'0 0.0
2016-Apr-25 16:33N 59°46' E 028°25'0 0.0
2016-Apr-25 15:33N 59°46' E 028°25'0 0.0
2016-Apr-25 14:33N 59°46' E 028°25'0 0.0
2016-Apr-25 13:33N 59°46' E 028°25'0 0.0
2016-Apr-25 12:33N 59°46' E 028°25'0 0.1
2016-Apr-25 11:34N 59°46' E 028°25'0 0.4
2016-Apr-25 10:33N 59°47' E 028°25'8 7.8
2016-Apr-25 09:33N 59°54' E 028°32'4 3.6
2016-Apr-25 08:29N 59°55' E 028°39'0 0.0
2016-Apr-25 07:32N 59°55' E 028°39'0 0.0
2016-Apr-25 06:32N 59°55' E 028°39'0 0.0
2016-Apr-25 05:32N 59°55' E 028°39'0 0.0
2016-Apr-25 04:26N 59°55' E 028°39'0 0.0
2016-Apr-25 03:23N 59°55' E 028°39'0 0.0
2016-Apr-25 02:26N 59°55' E 028°39'0 0.0
2016-Apr-25 00:11N 59°55' E 028°39'0 0.0
2016-Apr-24 23:29N 59°55' E 028°39'0 0.0
2016-Apr-24 22:29N 59°55' E 028°39'8 8.5
2016-Apr-24 21:33N 59°58' E 028°53'2311.4
2016-Apr-24 19:33N 60°00' E 029°38'6 5.9
2016-Apr-24 18:33N 59°56' E 029°46'0 0.0
2016-Apr-24 17:32N 59°56' E 029°46'0 0.0
2016-Apr-24 16:33N 59°56' E 029°46'0 0.0
2016-Apr-24 15:33N 59°56' E 029°46'0 0.0
2016-Apr-24 14:32N 59°56' E 029°46'0 0.0
2016-Apr-24 13:33N 59°56' E 029°46'0 0.0
2016-Apr-24 12:33N 59°56' E 029°46'0 0.0
2016-Apr-24 11:33N 59°56' E 029°46'1 1.5
2016-Apr-24 10:33N 59°57' E 029°47'9 9.4
2016-Apr-24 09:33N 59°54' E 030°05'4 4.4
2016-Apr-24 08:33N 59°53' E 030°13'0 0.0
2016-Apr-24 07:33N 59°53' E 030°13'0 0.0
2016-Apr-24 06:33N 59°53' E 030°13'0 0.0
2016-Apr-24 05:33N 59°53' E 030°13'0 0.0
2016-Apr-24 04:33N 59°53' E 030°13'0 0.1
2016-Apr-24 03:33N 59°53' E 030°14'0 0.0
2016-Apr-24 02:33N 59°53' E 030°14'0 0.0
2016-Apr-24 01:33N 59°53' E 030°14'0 0.0
2016-Apr-24 00:33N 59°53' E 030°14'1 0.9
2016-Apr-23 23:33N 59°53' E 030°12'0 0.0
2016-Apr-23 22:33N 59°53' E 030°12'0 0.0
2016-Apr-23 21:33N 59°53' E 030°12'0 0.0
2016-Apr-23 20:33N 59°53' E 030°12'0 0.0
2016-Apr-23 19:33N 59°53' E 030°12'0 0.0
2016-Apr-23 18:33N 59°53' E 030°12'1 0.8
2016-Apr-23 17:33N 59°53' E 030°13'0 0.0
2016-Apr-23 16:33N 59°53' E 030°13'0 0.0
2016-Apr-23 15:33N 59°53' E 030°13'2 2.1
2016-Apr-23 14:33N 59°55' E 030°15'0 0.0
2016-Apr-23 13:33N 59°55' E 030°15'0 0.0
2016-Apr-23 12:33N 59°55' E 030°15'0 0.0
2016-Apr-23 11:33N 59°55' E 030°15'0 0.0
2016-Apr-23 10:33N 59°55' E 030°15'0 0.1
2016-Apr-23 09:33N 59°55' E 030°15'2 2.0
2016-Apr-23 08:33N 59°53' E 030°14'0 0.0
2016-Apr-23 07:33N 59°53' E 030°14'0 0.0
2016-Apr-23 06:33N 59°53' E 030°14'0 0.1
2016-Apr-23 05:33N 59°53' E 030°13'0 0.0
2016-Apr-23 04:33N 59°53' E 030°13'0 0.0
2016-Apr-23 03:33N 59°53' E 030°13'3 3.2
2016-Apr-23 02:33N 59°54' E 030°07'9 9.3
2016-Apr-23 01:33N 59°57' E 029°50'10 9.2
2016-Apr-23 00:27N 60°01' E 029°31'25 2.1
2016-Apr-22 12:31N 60°15' E 028°49'6 0.4
2016-Apr-21 21:27N 60°20' E 028°42'0 0.0
2016-Apr-21 20:30N 60°20' E 028°42'32 0.9
2016-Apr-20 10:33N 60°01' E 029°33'1110.6
2016-Apr-20 09:33N 59°57' E 029°52'10 9.6
2016-Apr-20 08:33N 59°53' E 030°10'2 1.6
2016-Apr-20 07:33N 59°53' E 030°13'0 0.0
2016-Apr-20 06:33N 59°53' E 030°13'0 0.0
2016-Apr-20 05:33N 59°53' E 030°13'0 0.0
2016-Apr-20 04:32N 59°53' E 030°13'0 0.0
2016-Apr-20 03:33N 59°53' E 030°13'0 0.0
2016-Apr-20 02:33N 59°53' E 030°13'0 0.0
2016-Apr-20 01:33N 59°53' E 030°13'0 0.0
2016-Apr-20 00:33N 59°53' E 030°13'0 0.0
2016-Apr-19 23:33N 59°53' E 030°13'0 0.0
2016-Apr-19 22:33N 59°53' E 030°13'0 0.0
2016-Apr-19 21:33N 59°53' E 030°13'0 0.0
2016-Apr-19 20:32N 59°53' E 030°13'0 0.0
2016-Apr-19 19:33N 59°53' E 030°13'0 0.0
2016-Apr-19 18:33N 59°53' E 030°13'0 0.0
2016-Apr-19 17:33N 59°53' E 030°13'0 0.0
2016-Apr-19 16:33N 59°53' E 030°13'0 0.0
2016-Apr-19 15:33N 59°53' E 030°13'0 0.0
2016-Apr-19 14:33N 59°53' E 030°13'0 0.0
2016-Apr-19 13:33N 59°53' E 030°13'0 0.0
2016-Apr-19 12:33N 59°53' E 030°13'0 0.0
2016-Apr-19 11:33N 59°53' E 030°13'0 0.0
2016-Apr-19 10:33N 59°53' E 030°13'0 0.0
2016-Apr-19 09:33N 59°53' E 030°13'0 0.0
2016-Apr-19 08:33N 59°53' E 030°13'0 0.0
2016-Apr-19 07:33N 59°53' E 030°13'0 0.0
2016-Apr-19 06:33N 59°53' E 030°13'0 0.0
2016-Apr-19 05:33N 59°53' E 030°13'0 0.0
2016-Apr-19 04:33N 59°53' E 030°13'0 0.0
2016-Apr-19 03:32N 59°53' E 030°13'0 0.0
2016-Apr-19 02:33N 59°53' E 030°13'0 0.0
2016-Apr-19 01:33N 59°53' E 030°13'0 0.0
2016-Apr-19 00:33N 59°53' E 030°13'0 0.0
2016-Apr-18 23:33N 59°53' E 030°13'0 0.0
2016-Apr-18 22:33N 59°53' E 030°13'0 0.0
2016-Apr-18 21:33N 59°53' E 030°13'0 0.0
2016-Apr-18 20:33N 59°53' E 030°13'  

Dump ship's entire track history